Time;durP1;ratioP1;P1;durP2;ratioP2;P2;SDS_P1;SDS_P2;PMS_P1;PMS_P2;Temp;Humidity;BMP_temperature;BMP_pressure;BME280_temperature;BME280_humidity;BME280_pressure;Samples;Min_cycle;Max_cycle;Signal;HPM_P1;HPM_P2
2023/10/03 00:00:38;;;;;;;681.33;396.05;;;;;;;;;;4923180;29;20470;-69
2023/10/03 00:03:08;;;;;;;678.00;401.63;;;;;;;;;;4921101;29;20445;-69
2023/10/03 00:05:46;;;;;;;670.30;383.30;;;;;;;;;;4917326;29;20447;-69
2023/10/03 00:08:13;;;;;;;674.72;396.45;;;;;;;;;;4925369;29;21133;-69
2023/10/03 00:10:41;;;;;;;681.42;399.10;;;;;;;;;;4917803;29;20458;-69
2023/10/03 00:13:11;;;;;;;680.08;406.77;;;;;;;;;;4922581;29;20840;-68
2023/10/03 00:15:45;;;;;;;684.30;402.97;;;;;;;;;;4921495;29;20544;-69
2023/10/03 00:18:13;;;;;;;679.60;402.63;;;;;;;;;;4928900;29;20454;-69
2023/10/03 00:20:41;;;;;;;667.83;390.92;;;;;;;;;;4916616;29;20474;-69
2023/10/03 00:23:11;;;;;;;656.90;386.80;;;;;;;;;;4928954;29;20458;-69
2023/10/03 00:25:39;;;;;;;654.22;388.63;;;;;;;;;;4909119;29;20447;-69
2023/10/03 00:28:06;;;;;;;659.63;382.00;;;;;;;;;;4928587;29;20926;-69
2023/10/03 00:30:36;;;;;;;676.30;409.38;;;;;;;;;;4925556;29;20435;-68
2023/10/03 00:33:04;;;;;;;693.73;421.07;;;;;;;;;;4925292;29;20435;-68
2023/10/03 00:35:33;;;;;;;707.08;438.00;;;;;;;;;;4929025;29;20460;-69
2023/10/03 00:38:05;;;;;;;713.58;440.80;;;;;;;;;;4923310;29;20447;-68
2023/10/03 00:40:33;;;;;;;724.70;460.17;;;;;;;;;;4907092;29;20910;-68
2023/10/03 00:43:03;;;;;;;721.73;459.20;;;;;;;;;;4928388;29;20970;-68
2023/10/03 00:45:32;;;;;;;725.05;473.92;;;;;;;;;;4926738;29;20441;-68
2023/10/03 00:48:02;;;;;;;718.95;465.13;;;;;;;;;;4932334;29;20443;-68
2023/10/03 00:50:31;;;;;;;721.75;467.70;;;;;;;;;;4915263;29;20531;-69
2023/10/03 00:53:08;;;;;;;720.37;463.40;;;;;;;;;;4931296;29;20530;-69
2023/10/03 00:55:37;;;;;;;721.67;466.17;;;;;;;;;;4920325;29;20447;-69
2023/10/03 00:58:17;;;;;;;721.38;466.60;;;;;;;;;;4906080;29;20439;-69
2023/10/03 01:00:48;;;;;;;719.53;469.77;;;;;;;;;;4923489;29;20454;-69
2023/10/03 01:03:28;;;;;;;716.85;470.95;;;;;;;;;;4921069;29;20451;-69
2023/10/03 01:06:04;;;;;;;714.92;471.52;;;;;;;;;;4919347;29;20455;-69
2023/10/03 01:08:39;;;;;;;714.75;479.67;;;;;;;;;;4901701;29;20504;-69
2023/10/03 01:11:15;;;;;;;722.72;462.52;;;;;;;;;;4923086;29;20439;-69
2023/10/03 01:13:47;;;;;;;723.13;465.25;;;;;;;;;;4930370;29;20441;-69
2023/10/03 01:16:34;;;;;;;720.08;455.75;;;;;;;;;;4917786;29;20433;-69
2023/10/03 01:19:47;;;;;;;716.33;450.90;;;;;;;;;;4922115;29;20441;-69
2023/10/03 01:21:55;;;;;;;727.65;445.75;;;;;;;;;;4909801;29;20456;-69
2023/10/03 01:24:24;;;;;;;709.17;441.17;;;;;;;;;;4926734;29;20526;-69
2023/10/03 01:26:53;;;;;;;706.88;437.33;;;;;;;;;;4927439;29;21201;-69
2023/10/03 01:29:23;;;;;;;701.45;441.55;;;;;;;;;;4931881;29;20446;-69
2023/10/03 01:31:51;;;;;;;694.95;446.60;;;;;;;;;;4930008;29;20443;-69
2023/10/03 01:34:25;;;;;;;698.03;439.45;;;;;;;;;;4926075;29;20868;-68
2023/10/03 01:36:53;;;;;;;702.58;440.42;;;;;;;;;;4923541;29;20446;-68
2023/10/03 01:39:20;;;;;;;703.97;446.73;;;;;;;;;;4923923;29;20525;-68
2023/10/03 01:41:48;;;;;;;709.15;460.92;;;;;;;;;;4904397;29;20580;-69
2023/10/03 01:44:16;;;;;;;705.80;464.15;;;;;;;;;;4920169;29;20896;-69
2023/10/03 01:46:44;;;;;;;708.25;469.40;;;;;;;;;;4922762;29;20560;-68
2023/10/03 01:49:14;;;;;;;703.58;461.75;;;;;;;;;;4918775;29;21200;-68
2023/10/03 01:51:41;;;;;;;694.38;454.17;;;;;;;;;;4924262;29;20444;-68
2023/10/03 01:54:18;;;;;;;678.47;433.85;;;;;;;;;;4927355;29;20803;-69
2023/10/03 01:56:47;;;;;;;670.90;432.38;;;;;;;;;;4929230;29;20450;-69
2023/10/03 01:59:17;;;;;;;677.88;416.45;;;;;;;;;;4925149;29;20453;-69
2023/10/03 02:01:48;;;;;;;660.47;420.17;;;;;;;;;;4927045;29;20523;-69
2023/10/03 02:04:15;;;;;;;661.33;422.48;;;;;;;;;;4920285;29;20466;-68
2023/10/03 02:06:42;;;;;;;680.63;413.05;;;;;;;;;;4927689;29;20481;-69
2023/10/03 02:09:10;;;;;;;681.88;421.75;;;;;;;;;;4924531;29;20487;-68
2023/10/03 02:11:40;;;;;;;680.83;421.13;;;;;;;;;;4926533;29;20443;-69
2023/10/03 02:14:11;;;;;;;679.22;423.55;;;;;;;;;;4910194;29;20435;-69
2023/10/03 02:16:44;;;;;;;677.63;430.08;;;;;;;;;;4926410;29;20435;-69
2023/10/03 02:19:11;;;;;;;695.80;430.02;;;;;;;;;;4910426;29;20477;-69
2023/10/03 02:21:41;;;;;;;701.00;428.07;;;;;;;;;;4909658;29;20435;-69
2023/10/03 02:24:12;;;;;;;703.70;427.33;;;;;;;;;;4922709;29;20482;-69
2023/10/03 02:26:42;;;;;;;694.28;439.23;;;;;;;;;;4928089;29;20438;-69
2023/10/03 02:29:12;;;;;;;691.60;433.65;;;;;;;;;;4920726;29;20983;-69
2023/10/03 02:31:40;;;;;;;676.28;446.33;;;;;;;;;;4926382;29;20438;-69
2023/10/03 02:34:07;;;;;;;681.53;428.92;;;;;;;;;;4926691;29;21020;-69
2023/10/03 02:36:34;;;;;;;681.63;428.08;;;;;;;;;;4921293;29;21130;-68
2023/10/03 02:39:06;;;;;;;675.17;427.30;;;;;;;;;;4902856;29;20811;-69
2023/10/03 02:41:34;;;;;;;673.45;431.73;;;;;;;;;;4928196;29;20803;-69
2023/10/03 02:44:02;;;;;;;669.17;416.73;;;;;;;;;;4928906;29;20439;-69
2023/10/03 02:46:33;;;;;;;662.20;413.67;;;;;;;;;;4926082;29;20522;-68
2023/10/03 02:49:00;;;;;;;661.45;426.63;;;;;;;;;;4926537;29;20784;-69
2023/10/03 02:51:28;;;;;;;668.55;429.05;;;;;;;;;;4928970;29;20446;-68
2023/10/03 02:53:55;;;;;;;660.05;439.67;;;;;;;;;;4924996;29;20487;-68
2023/10/03 02:56:22;;;;;;;657.83;437.55;;;;;;;;;;4919461;29;20934;-68
2023/10/03 02:58:53;;;;;;;657.78;448.02;;;;;;;;;;4923989;29;20490;-68
2023/10/03 03:01:23;;;;;;;656.37;439.03;;;;;;;;;;4923335;29;20448;-69
2023/10/03 03:03:52;;;;;;;658.27;441.37;;;;;;;;;;4924161;29;20484;-69
2023/10/03 03:06:20;;;;;;;654.03;437.63;;;;;;;;;;4921419;29;20494;-68
2023/10/03 03:08:47;;;;;;;654.30;433.88;;;;;;;;;;4921608;29;20443;-69
2023/10/03 03:11:15;;;;;;;660.38;427.80;;;;;;;;;;4920802;29;20490;-69
2023/10/03 03:13:42;;;;;;;662.25;434.65;;;;;;;;;;4924634;29;20948;-68
2023/10/03 03:16:12;;;;;;;656.15;433.85;;;;;;;;;;4921459;29;20979;-68
2023/10/03 03:18:46;;;;;;;653.45;449.80;;;;;;;;;;4921764;29;20445;-68
2023/10/03 03:21:14;;;;;;;662.28;448.27;;;;;;;;;;4912938;29;20471;-68
2023/10/03 03:23:56;;;;;;;665.33;446.15;;;;;;;;;;4914547;29;20443;-68
2023/10/03 03:26:36;;;;;;;658.78;442.52;;;;;;;;;;4927954;29;20970;-69
2023/10/03 03:29:20;;;;;;;659.30;435.02;;;;;;;;;;4903579;29;20979;-68
2023/10/03 03:31:52;;;;;;;653.67;429.58;;;;;;;;;;4917287;29;20974;-68
2023/10/03 03:34:20;;;;;;;647.60;431.52;;;;;;;;;;4921500;29;20514;-70
2023/10/03 03:36:49;;;;;;;648.75;433.30;;;;;;;;;;4921448;29;20432;-70
2023/10/03 03:39:20;;;;;;;643.03;418.27;;;;;;;;;;4916011;29;20444;-70
2023/10/03 03:41:49;;;;;;;650.75;430.00;;;;;;;;;;4925743;29;20437;-70
2023/10/03 03:44:18;;;;;;;656.95;427.65;;;;;;;;;;4912569;29;20429;-69
2023/10/03 03:46:49;;;;;;;666.45;423.58;;;;;;;;;;4919963;29;20816;-70
2023/10/03 03:49:25;;;;;;;673.47;422.15;;;;;;;;;;4920721;29;20479;-69
2023/10/03 03:51:53;;;;;;;665.53;437.08;;;;;;;;;;4921636;29;20459;-69
2023/10/03 03:54:20;;;;;;;663.85;430.60;;;;;;;;;;4922417;29;20546;-70
2023/10/03 03:56:53;;;;;;;666.78;436.13;;;;;;;;;;4920562;29;20453;-69
2023/10/03 03:59:22;;;;;;;666.08;431.52;;;;;;;;;;4928846;29;20877;-70
2023/10/03 04:01:50;;;;;;;662.60;425.08;;;;;;;;;;4921916;29;20478;-70
2023/10/03 04:04:19;;;;;;;664.70;434.60;;;;;;;;;;4926508;29;20900;-69
2023/10/03 04:06:49;;;;;;;666.45;432.17;;;;;;;;;;4923501;29;22007;-69
2023/10/03 04:09:17;;;;;;;669.08;432.85;;;;;;;;;;4920404;29;20445;-69
2023/10/03 04:11:46;;;;;;;670.47;447.60;;;;;;;;;;4921774;29;20460;-69
2023/10/03 04:14:14;;;;;;;666.80;435.80;;;;;;;;;;4927248;29;20482;-70
2023/10/03 04:16:43;;;;;;;668.77;437.07;;;;;;;;;;4921976;29;20437;-69
2023/10/03 04:19:13;;;;;;;669.30;435.70;;;;;;;;;;4923221;29;21000;-69
2023/10/03 04:21:40;;;;;;;676.05;429.73;;;;;;;;;;4915005;29;20480;-69
2023/10/03 04:24:11;;;;;;;679.75;434.60;;;;;;;;;;4921856;29;20926;-69
2023/10/03 04:26:42;;;;;;;680.42;435.30;;;;;;;;;;4929685;29;20554;-70
2023/10/03 04:29:13;;;;;;;678.17;436.90;;;;;;;;;;4910815;29;20787;-69
2023/10/03 04:31:42;;;;;;;687.28;448.30;;;;;;;;;;4930485;29;20435;-69
2023/10/03 04:34:11;;;;;;;677.42;445.52;;;;;;;;;;4922237;29;20436;-69
2023/10/03 04:36:41;;;;;;;659.10;419.50;;;;;;;;;;4930615;29;20957;-69
2023/10/03 04:39:09;;;;;;;649.42;405.88;;;;;;;;;;4924344;29;20444;-69
2023/10/03 04:41:43;;;;;;;649.83;403.05;;;;;;;;;;4931126;29;20454;-69
2023/10/03 04:44:17;;;;;;;649.33;394.17;;;;;;;;;;4921445;29;20568;-69
2023/10/03 04:46:48;;;;;;;657.20;403.25;;;;;;;;;;4914989;29;20449;-69
2023/10/03 04:49:15;;;;;;;639.70;403.83;;;;;;;;;;4927755;29;20806;-68
2023/10/03 04:51:47;;;;;;;668.50;410.98;;;;;;;;;;4916178;29;20439;-69
2023/10/03 04:54:16;;;;;;;691.83;429.55;;;;;;;;;;4921333;29;21005;-69
2023/10/03 04:56:44;;;;;;;700.17;442.02;;;;;;;;;;4927474;29;20468;-69
2023/10/03 04:59:13;;;;;;;698.97;450.95;;;;;;;;;;4923590;29;20443;-69
2023/10/03 05:01:40;;;;;;;704.10;470.25;;;;;;;;;;4900805;29;20516;-69
2023/10/03 05:04:07;;;;;;;723.57;483.47;;;;;;;;;;4927282;29;20751;-69
2023/10/03 05:06:37;;;;;;;733.10;492.97;;;;;;;;;;4905322;29;20607;-69
2023/10/03 05:09:07;;;;;;;757.08;500.98;;;;;;;;;;4924473;29;20439;-69
2023/10/03 05:11:35;;;;;;;763.38;515.17;;;;;;;;;;4930875;29;20518;-69
2023/10/03 05:14:02;;;;;;;776.20;524.25;;;;;;;;;;4925039;29;20440;-69
2023/10/03 05:16:29;;;;;;;779.50;528.92;;;;;;;;;;4924050;29;20433;-69
2023/10/03 05:18:59;;;;;;;784.58;535.80;;;;;;;;;;4917789;29;20489;-69
2023/10/03 05:21:27;;;;;;;792.63;545.53;;;;;;;;;;4921844;29;20448;-69
2023/10/03 05:23:55;;;;;;;800.80;550.15;;;;;;;;;;4928106;29;20466;-69
2023/10/03 05:26:25;;;;;;;797.15;547.67;;;;;;;;;;4920649;29;20533;-69
2023/10/03 05:28:55;;;;;;;795.38;547.88;;;;;;;;;;4929107;29;20459;-69
2023/10/03 05:31:23;;;;;;;794.77;552.73;;;;;;;;;;4930223;29;20458;-69
2023/10/03 05:33:53;;;;;;;811.35;559.60;;;;;;;;;;4898058;29;20449;-69
2023/10/03 05:36:23;;;;;;;811.07;560.93;;;;;;;;;;4927686;29;20431;-69
2023/10/03 05:38:50;;;;;;;818.70;565.90;;;;;;;;;;4925243;29;20455;-69
2023/10/03 05:41:18;;;;;;;812.65;557.83;;;;;;;;;;4913579;29;20450;-69
2023/10/03 05:43:50;;;;;;;816.78;567.67;;;;;;;;;;4925446;29;20448;-69
2023/10/03 05:46:17;;;;;;;819.63;560.70;;;;;;;;;;4924270;29;20924;-69
2023/10/03 05:48:45;;;;;;;822.23;560.47;;;;;;;;;;4928044;29;21196;-69
2023/10/03 05:51:13;;;;;;;818.63;560.35;;;;;;;;;;4927196;29;20439;-69
2023/10/03 05:53:42;;;;;;;820.13;558.65;;;;;;;;;;4925997;29;20807;-69
2023/10/03 05:56:12;;;;;;;818.13;558.60;;;;;;;;;;4925191;29;21135;-69
2023/10/03 05:58:40;;;;;;;813.22;562.25;;;;;;;;;;4923354;29;20494;-69
2023/10/03 06:01:12;;;;;;;814.95;561.90;;;;;;;;;;4925181;29;20451;-69
2023/10/03 06:03:40;;;;;;;828.30;572.50;;;;;;;;;;4927029;29;21198;-69
2023/10/03 06:06:07;;;;;;;816.72;573.90;;;;;;;;;;4917901;29;20449;-69
2023/10/03 06:08:37;;;;;;;837.65;580.20;;;;;;;;;;4925305;29;20467;-69
2023/10/03 06:11:05;;;;;;;841.37;586.00;;;;;;;;;;4925783;29;20450;-69
2023/10/03 06:13:32;;;;;;;845.17;589.90;;;;;;;;;;4923876;29;20534;-69
2023/10/03 06:16:00;;;;;;;861.80;602.92;;;;;;;;;;4925635;29;20535;-69
2023/10/03 06:18:30;;;;;;;859.67;600.92;;;;;;;;;;4925314;29;20436;-69
2023/10/03 06:21:00;;;;;;;864.40;603.40;;;;;;;;;;4929313;29;20443;-69
2023/10/03 06:23:27;;;;;;;867.55;613.55;;;;;;;;;;4916670;29;20448;-69
2023/10/03 06:25:54;;;;;;;865.47;611.25;;;;;;;;;;4927194;29;20450;-70
2023/10/03 06:28:22;;;;;;;883.85;623.55;;;;;;;;;;4920786;29;20444;-70
2023/10/03 06:30:51;;;;;;;875.88;626.63;;;;;;;;;;4931494;29;20494;-69
2023/10/03 06:33:18;;;;;;;879.88;628.97;;;;;;;;;;4917634;29;20436;-69
2023/10/03 06:35:45;;;;;;;881.83;628.25;;;;;;;;;;4927523;29;20452;-69
2023/10/03 06:38:15;;;;;;;888.47;623.72;;;;;;;;;;4924020;29;20864;-69
2023/10/03 06:40:43;;;;;;;882.65;619.83;;;;;;;;;;4924549;29;20454;-70
2023/10/03 06:43:11;;;;;;;887.97;628.60;;;;;;;;;;4923136;29;20440;-69
2023/10/03 06:45:38;;;;;;;890.93;626.43;;;;;;;;;;4926872;29;20442;-69
2023/10/03 06:48:05;;;;;;;891.38;631.28;;;;;;;;;;4922829;29;20534;-69
2023/10/03 06:50:35;;;;;;;896.28;635.72;;;;;;;;;;4923825;29;20836;-69
2023/10/03 06:53:02;;;;;;;901.60;634.47;;;;;;;;;;4927688;29;20818;-69
2023/10/03 06:55:30;;;;;;;901.40;630.58;;;;;;;;;;4924209;29;20448;-69
2023/10/03 06:57:58;;;;;;;900.95;633.00;;;;;;;;;;4903979;29;20444;-70
2023/10/03 07:00:26;;;;;;;899.60;633.70;;;;;;;;;;4925367;29;20974;-69
2023/10/03 07:02:53;;;;;;;897.75;637.35;;;;;;;;;;4916787;29;20556;-69
2023/10/03 07:05:26;;;;;;;898.03;634.22;;;;;;;;;;4918345;29;20447;-70
2023/10/03 07:07:53;;;;;;;899.73;636.53;;;;;;;;;;4923592;29;20438;-70
2023/10/03 07:10:25;;;;;;;906.83;640.10;;;;;;;;;;4927953;29;20447;-70
2023/10/03 07:12:56;;;;;;;888.42;627.55;;;;;;;;;;4917799;29;20441;-69
2023/10/03 07:15:23;;;;;;;879.97;626.15;;;;;;;;;;4918182;29;20443;-70
2023/10/03 07:17:50;;;;;;;891.17;630.53;;;;;;;;;;4921033;29;20512;-69
2023/10/03 07:20:22;;;;;;;910.50;648.15;;;;;;;;;;4924575;29;20462;-70
2023/10/03 07:22:49;;;;;;;913.88;653.83;;;;;;;;;;4920304;29;20567;-70
2023/10/03 07:25:16;;;;;;;908.75;649.30;;;;;;;;;;4924368;29;20470;-69
2023/10/03 07:27:45;;;;;;;904.95;646.03;;;;;;;;;;4919510;29;20855;-69
2023/10/03 07:30:14;;;;;;;906.22;652.60;;;;;;;;;;4919702;29;20513;-69
2023/10/03 07:32:41;;;;;;;903.88;653.67;;;;;;;;;;4910509;29;20471;-69
2023/10/03 07:35:16;;;;;;;906.07;653.07;;;;;;;;;;4928412;29;20435;-70
2023/10/03 07:37:44;;;;;;;915.33;662.07;;;;;;;;;;4927283;29;20450;-70
2023/10/03 07:40:11;;;;;;;914.20;659.38;;;;;;;;;;4922503;29;21131;-70
2023/10/03 07:42:40;;;;;;;939.08;681.42;;;;;;;;;;4922911;29;20564;-69
2023/10/03 07:45:10;;;;;;;916.97;665.25;;;;;;;;;;4916249;29;20828;-69
2023/10/03 07:47:39;;;;;;;911.95;655.80;;;;;;;;;;4922654;29;20504;-69
2023/10/03 07:50:07;;;;;;;900.13;643.80;;;;;;;;;;4927050;29;20450;-70
2023/10/03 07:52:34;;;;;;;903.97;648.78;;;;;;;;;;4921941;29;20532;-69
2023/10/03 07:55:03;;;;;;;899.45;646.75;;;;;;;;;;4917776;29;20990;-70
2023/10/03 07:57:31;;;;;;;909.83;657.97;;;;;;;;;;4915920;29;20575;-70
2023/10/03 07:59:58;;;;;;;915.73;667.73;;;;;;;;;;4918496;29;20447;-70
2023/10/03 08:02:32;;;;;;;899.20;653.80;;;;;;;;;;4912291;29;20472;-70
2023/10/03 08:05:02;;;;;;;910.05;659.20;;;;;;;;;;4918738;29;20530;-70
2023/10/03 08:07:31;;;;;;;898.17;642.00;;;;;;;;;;4919232;29;20502;-70
2023/10/03 08:10:02;;;;;;;910.27;665.77;;;;;;;;;;4914778;29;21060;-70
2023/10/03 08:12:32;;;;;;;924.57;689.77;;;;;;;;;;4921188;29;21126;-70
2023/10/03 08:14:59;;;;;;;927.47;693.53;;;;;;;;;;4914275;29;20496;-70
2023/10/03 08:17:31;;;;;;;927.47;700.85;;;;;;;;;;4924304;29;20496;-70
2023/10/03 08:20:04;;;;;;;930.58;701.30;;;;;;;;;;4918050;29;20815;-70
2023/10/03 08:22:34;;;;;;;931.03;701.60;;;;;;;;;;4923666;29;20443;-70
2023/10/03 08:25:05;;;;;;;941.90;708.53;;;;;;;;;;4920844;29;20524;-70
2023/10/03 08:27:32;;;;;;;949.60;717.95;;;;;;;;;;4922936;29;20435;-70
2023/10/03 08:30:01;;;;;;;966.90;738.17;;;;;;;;;;4915920;29;20474;-70
2023/10/03 08:32:39;;;;;;;953.58;724.13;;;;;;;;;;4916813;29;20471;-70
2023/10/03 08:35:10;;;;;;;937.60;715.33;;;;;;;;;;4926080;29;20433;-70
2023/10/03 08:37:38;;;;;;;948.80;715.83;;;;;;;;;;4919930;29;20439;-70
2023/10/03 08:40:19;;;;;;;932.80;714.03;;;;;;;;;;4921305;29;20458;-70
2023/10/03 08:42:52;;;;;;;935.72;710.78;;;;;;;;;;4920903;29;20448;-70
2023/10/03 08:45:25;;;;;;;935.83;711.17;;;;;;;;;;4914234;29;20448;-71
2023/10/03 08:47:53;;;;;;;942.53;719.17;;;;;;;;;;4918778;29;20527;-70
2023/10/03 08:50:33;;;;;;;940.50;721.83;;;;;;;;;;4915462;29;20518;-70
2023/10/03 08:53:16;;;;;;;941.43;719.27;;;;;;;;;;4909862;29;20474;-71
2023/10/03 08:55:47;;;;;;;943.15;726.35;;;;;;;;;;4927864;29;20447;-70
2023/10/03 08:58:18;;;;;;;923.70;698.10;;;;;;;;;;4921805;29;20474;-70
2023/10/03 09:00:46;;;;;;;925.08;692.17;;;;;;;;;;4927144;29;20447;-70
2023/10/03 09:03:14;;;;;;;946.13;723.70;;;;;;;;;;4921763;29;20444;-70
2023/10/03 09:05:42;;;;;;;953.88;738.85;;;;;;;;;;4920661;29;20437;-70
2023/10/03 09:08:10;;;;;;;953.05;737.92;;;;;;;;;;4921151;29;20437;-72
2023/10/03 09:10:51;;;;;;;951.72;738.55;;;;;;;;;;4929309;29;20498;-70
2023/10/03 09:13:25;;;;;;;954.80;739.63;;;;;;;;;;4898915;29;20441;-70
2023/10/03 09:15:59;;;;;;;957.17;744.35;;;;;;;;;;4919749;29;20502;-70
2023/10/03 09:18:40;;;;;;;956.55;746.10;;;;;;;;;;4909350;29;20439;-71
2023/10/03 09:21:14;;;;;;;959.28;751.00;;;;;;;;;;4905017;29;20451;-72
2023/10/03 09:24:02;;;;;;;967.20;759.80;;;;;;;;;;4927373;29;20439;-70
2023/10/03 09:26:46;;;;;;;973.60;767.53;;;;;;;;;;4927450;29;20443;-70
2023/10/03 09:29:29;;;;;;;973.92;766.05;;;;;;;;;;4913912;29;20930;-71
2023/10/03 09:31:58;;;;;;;984.95;785.65;;;;;;;;;;4926201;29;20504;-70
2023/10/03 09:34:32;;;;;;;982.17;782.55;;;;;;;;;;4930754;29;20440;-71
2023/10/03 09:37:02;;;;;;;983.60;783.42;;;;;;;;;;4920323;29;20443;-70
2023/10/03 09:39:30;;;;;;;976.88;777.30;;;;;;;;;;4921259;29;20452;-70
2023/10/03 09:41:59;;;;;;;963.30;761.20;;;;;;;;;;4928476;29;20444;-71
2023/10/03 09:44:32;;;;;;;967.90;766.85;;;;;;;;;;4921483;29;20478;-71
2023/10/03 09:47:06;;;;;;;963.45;757.40;;;;;;;;;;4922964;29;20439;-71
2023/10/03 09:49:38;;;;;;;964.65;757.55;;;;;;;;;;4919439;29;20530;-71
2023/10/03 09:52:32;;;;;;;945.40;736.25;;;;;;;;;;4921484;29;20857;-71
2023/10/03 09:55:03;;;;;;;965.33;760.35;;;;;;;;;;4926536;29;20451;-71
2023/10/03 09:57:32;;;;;;;957.47;752.92;;;;;;;;;;4920670;29;20441;-70
2023/10/03 10:00:00;;;;;;;954.13;749.33;;;;;;;;;;4912270;29;20871;-71
2023/10/03 10:02:32;;;;;;;958.30;755.43;;;;;;;;;;4925320;29;20912;-70
2023/10/03 10:05:08;;;;;;;965.17;762.17;;;;;;;;;;4925092;29;20444;-70
2023/10/03 10:07:43;;;;;;;954.35;752.55;;;;;;;;;;4918485;29;20971;-71
2023/10/03 10:10:14;;;;;;;950.17;757.85;;;;;;;;;;4923638;29;20443;-72
2023/10/03 10:13:00;;;;;;;1008.65;816.58;;;;;;;;;;4925783;29;20441;-71
2023/10/03 10:15:29;;;;;;;1005.55;816.60;;;;;;;;;;4927140;29;20482;-70
2023/10/03 10:17:58;;;;;;;971.95;779.03;;;;;;;;;;4929650;29;20439;-71
2023/10/03 10:20:37;;;;;;;1013.28;827.75;;;;;;;;;;4923877;29;20930;-71
2023/10/03 10:23:06;;;;;;;994.70;807.80;;;;;;;;;;4922207;29;20951;-70
2023/10/03 10:25:41;;;;;;;1019.50;835.27;;;;;;;;;;4924071;29;20911;-71
2023/10/03 10:28:10;;;;;;;982.88;793.78;;;;;;;;;;4928256;29;20499;-70
2023/10/03 10:31:00;;;;;;;996.33;808.23;;;;;;;;;;4912850;29;20463;-71
2023/10/03 10:33:27;;;;;;;1000.70;814.35;;;;;;;;;;4921749;29;20613;-71
2023/10/03 10:35:55;;;;;;;980.70;790.00;;;;;;;;;;4920625;29;20443;-71
2023/10/03 10:38:34;;;;;;;985.05;809.53;;;;;;;;;;4920628;29;20443;-71
2023/10/03 10:41:17;;;;;;;961.10;774.70;;;;;;;;;;4920040;29;20530;-72
2023/10/03 10:44:05;;;;;;;958.65;771.13;;;;;;;;;;4925325;29;20470;-71
2023/10/03 10:46:39;;;;;;;958.00;769.50;;;;;;;;;;4923269;29;20445;-70
2023/10/03 10:49:27;;;;;;;955.00;762.80;;;;;;;;;;4924244;29;20450;-71
2023/10/03 10:52:01;;;;;;;965.22;778.05;;;;;;;;;;4920591;29;20471;-71
2023/10/03 10:54:28;;;;;;;958.13;774.20;;;;;;;;;;4918928;29;20963;-70
2023/10/03 10:57:00;;;;;;;970.97;784.15;;;;;;;;;;4913667;29;20559;-70
2023/10/03 10:59:27;;;;;;;976.28;791.72;;;;;;;;;;4914135;29;20445;-70
2023/10/03 11:01:57;;;;;;;985.00;799.33;;;;;;;;;;4919649;29;21242;-70
2023/10/03 11:04:25;;;;;;;988.83;808.00;;;;;;;;;;4921075;29;20807;-71
2023/10/03 11:06:55;;;;;;;988.97;806.83;;;;;;;;;;4920974;29;20447;-70
2023/10/03 11:09:23;;;;;;;962.13;776.23;;;;;;;;;;4915976;29;20490;-71
2023/10/03 11:11:51;;;;;;;960.03;777.08;;;;;;;;;;4918906;29;20439;-70
2023/10/03 11:14:26;;;;;;;980.42;814.75;;;;;;;;;;4923292;29;20441;-72
2023/10/03 11:16:53;;;;;;;980.35;816.67;;;;;;;;;;4917986;29;20471;-71
2023/10/03 11:19:23;;;;;;;987.58;831.72;;;;;;;;;;4900259;29;20524;-71
2023/10/03 11:21:53;;;;;;;967.75;809.13;;;;;;;;;;4915940;29;20445;-70
2023/10/03 11:24:21;;;;;;;967.00;804.47;;;;;;;;;;4920114;29;20600;-71
2023/10/03 11:26:52;;;;;;;984.25;819.08;;;;;;;;;;4924259;29;20980;-71
2023/10/03 11:29:39;;;;;;;978.08;813.25;;;;;;;;;;4919574;29;21086;-70
2023/10/03 11:32:24;;;;;;;966.38;793.20;;;;;;;;;;4924312;29;21546;-71
2023/10/03 11:34:53;;;;;;;969.50;791.90;;;;;;;;;;4918623;29;20497;-69
2023/10/03 11:37:30;;;;;;;963.35;781.38;;;;;;;;;;4922614;29;20450;-70
2023/10/03 11:40:08;;;;;;;970.42;785.13;;;;;;;;;;4927567;29;20521;-70
2023/10/03 11:42:44;;;;;;;971.90;787.30;;;;;;;;;;4916033;29;20441;-70
2023/10/03 11:45:15;;;;;;;972.40;790.67;;;;;;;;;;4924364;29;21171;-70
2023/10/03 11:47:42;;;;;;;981.38;807.47;;;;;;;;;;4924408;29;20436;-71
2023/10/03 11:50:10;;;;;;;988.30;819.70;;;;;;;;;;4921135;29;20527;-70
2023/10/03 11:52:37;;;;;;;989.95;830.67;;;;;;;;;;4922634;29;20609;-70
2023/10/03 11:55:08;;;;;;;989.28;829.65;;;;;;;;;;4896745;29;20444;-70
2023/10/03 11:57:36;;;;;;;984.45;817.45;;;;;;;;;;4928984;29;20482;-70
2023/10/03 12:00:13;;;;;;;989.97;823.78;;;;;;;;;;4914896;29;20567;-71
2023/10/03 12:02:45;;;;;;;970.30;807.80;;;;;;;;;;4922073;29;20447;-70
2023/10/03 12:05:12;;;;;;;974.00;801.90;;;;;;;;;;4904112;29;20442;-71
2023/10/03 12:07:47;;;;;;;964.10;786.87;;;;;;;;;;4916981;29;20455;-71
2023/10/03 12:10:14;;;;;;;972.42;796.10;;;;;;;;;;4919707;29;20443;-70
2023/10/03 12:12:42;;;;;;;976.35;797.33;;;;;;;;;;4926553;29;20450;-71
2023/10/03 12:15:13;;;;;;;974.15;797.55;;;;;;;;;;4919529;29;20439;-69
2023/10/03 12:17:47;;;;;;;977.33;802.35;;;;;;;;;;4924322;29;20820;-70
2023/10/03 12:20:19;;;;;;;976.22;795.20;;;;;;;;;;4916270;29;20452;-70
2023/10/03 12:22:47;;;;;;;958.25;773.40;;;;;;;;;;4921974;29;20441;-70
2023/10/03 12:25:23;;;;;;;966.03;776.90;;;;;;;;;;4923332;29;20464;-70
2023/10/03 12:27:51;;;;;;;967.13;779.78;;;;;;;;;;4916342;29;20451;-71
2023/10/03 12:30:18;;;;;;;951.83;753.92;;;;;;;;;;4920231;29;20559;-71
2023/10/03 12:32:49;;;;;;;944.53;732.50;;;;;;;;;;4923643;29;20441;-69
2023/10/03 12:35:17;;;;;;;936.85;727.10;;;;;;;;;;4918169;29;20438;-72
2023/10/03 12:37:48;;;;;;;941.13;731.17;;;;;;;;;;4918504;29;20439;-71
2023/10/03 12:40:25;;;;;;;940.13;724.45;;;;;;;;;;4913444;29;20451;-70
2023/10/03 12:42:54;;;;;;;938.70;712.25;;;;;;;;;;4923872;29;20437;-70
2023/10/03 12:45:21;;;;;;;927.42;689.53;;;;;;;;;;4925643;29;20447;-71
2023/10/03 12:47:52;;;;;;;921.10;676.37;;;;;;;;;;4922289;29;20525;-72
2023/10/03 12:50:23;;;;;;;913.40;664.75;;;;;;;;;;4922859;29;20463;-67
2023/10/03 12:52:51;;;;;;;895.78;647.33;;;;;;;;;;4923946;29;20973;-66
2023/10/03 12:55:18;;;;;;;864.23;621.80;;;;;;;;;;4906230;29;20852;-67
2023/10/03 12:57:46;;;;;;;826.40;588.47;;;;;;;;;;4930616;29;20431;-66
2023/10/03 13:00:24;;;;;;;809.03;582.10;;;;;;;;;;4921405;29;21111;-66
2023/10/03 13:02:51;;;;;;;787.78;564.20;;;;;;;;;;4915354;29;20439;-66
2023/10/03 13:05:21;;;;;;;777.83;549.72;;;;;;;;;;4924884;29;20494;-66
2023/10/03 13:07:49;;;;;;;776.78;548.58;;;;;;;;;;4922321;29;20502;-66
2023/10/03 13:10:19;;;;;;;785.22;555.55;;;;;;;;;;4922958;29;20530;-66
2023/10/03 13:12:51;;;;;;;799.53;573.75;;;;;;;;;;4929421;29;20446;-65
2023/10/03 13:15:19;;;;;;;802.75;579.08;;;;;;;;;;4927316;29;20922;-66
2023/10/03 13:17:48;;;;;;;801.70;576.63;;;;;;;;;;4920821;29;20606;-65
2023/10/03 13:20:19;;;;;;;786.80;557.10;;;;;;;;;;4921852;29;20810;-65
2023/10/03 13:22:48;;;;;;;780.95;559.42;;;;;;;;;;4920451;29;20468;-66
2023/10/03 13:25:24;;;;;;;779.03;550.65;;;;;;;;;;4924407;29;20444;-65
2023/10/03 13:27:53;;;;;;;770.53;543.83;;;;;;;;;;4916713;29;20475;-66
2023/10/03 13:30:28;;;;;;;756.60;533.38;;;;;;;;;;4924988;29;21162;-65
2023/10/03 13:32:57;;;;;;;741.60;517.30;;;;;;;;;;4921941;29;20510;-65
2023/10/03 13:35:25;;;;;;;728.28;506.80;;;;;;;;;;4910535;29;20522;-65
2023/10/03 13:37:55;;;;;;;732.53;518.38;;;;;;;;;;4925976;29;20435;-65
2023/10/03 13:40:23;;;;;;;716.83;499.00;;;;;;;;;;4928343;29;20443;-66
2023/10/03 13:42:51;;;;;;;719.70;506.23;;;;;;;;;;4930869;29;20506;-66
2023/10/03 13:45:19;;;;;;;729.22;516.85;;;;;;;;;;4921064;29;20439;-65
2023/10/03 13:47:48;;;;;;;739.13;531.92;;;;;;;;;;4921859;29;20543;-65
2023/10/03 13:50:17;;;;;;;720.90;507.80;;;;;;;;;;4927272;29;20443;-65
2023/10/03 13:52:48;;;;;;;740.33;533.40;;;;;;;;;;4922689;29;20536;-65
2023/10/03 13:55:20;;;;;;;737.00;525.55;;;;;;;;;;4926169;29;20439;-65
2023/10/03 13:57:50;;;;;;;728.78;520.60;;;;;;;;;;4920193;29;20875;-65
2023/10/03 14:00:28;;;;;;;708.22;503.77;;;;;;;;;;4929763;29;20474;-65
2023/10/03 14:03:00;;;;;;;711.40;503.38;;;;;;;;;;4915207;29;20861;-65
2023/10/03 14:05:27;;;;;;;719.00;512.83;;;;;;;;;;4928412;29;20498;-65
2023/10/03 14:07:58;;;;;;;740.13;534.77;;;;;;;;;;4910039;29;20515;-65
2023/10/03 14:10:25;;;;;;;710.55;495.50;;;;;;;;;;4922518;29;20443;-64